Time;durP1;ratioP1;P1;durP2;ratioP2;P2;SDS_P1;SDS_P2;PMS_P1;PMS_P2;Temp;Humidity;BMP_temperature;BMP_pressure;BME280_temperature;BME280_humidity;BME280_pressure;Samples;Min_cycle;Max_cycle;Signal;HPM_P1;HPM_P2
2023/01/31 00:01:37;;;;;;;23.02;3.60;;;;;;;4.11;84.81;102416.88;5016495;28;20073;-83
2023/01/31 00:04:05;;;;;;;17.55;3.42;;;;;;;4.10;84.99;102408.13;5034178;28;20037;-82
2023/01/31 00:06:34;;;;;;;17.77;3.40;;;;;;;4.01;84.95;102405.84;5034194;28;20129;-83
2023/01/31 00:09:04;;;;;;;16.23;3.85;;;;;;;4.08;84.79;102417.59;5033895;28;20029;-83
2023/01/31 00:11:32;;;;;;;15.38;3.20;;;;;;;3.96;85.18;102403.75;5033061;28;20053;-83
2023/01/31 00:13:59;;;;;;;14.57;3.15;;;;;;;4.02;85.55;102417.19;5033678;28;20029;-83
2023/01/31 00:16:26;;;;;;;20.65;3.80;;;;;;;3.99;85.31;102435.34;5016299;28;20540;-83
2023/01/31 00:18:51;;;;;;;18.08;3.88;;;;;;;3.98;85.05;102428.28;5033569;28;20029;-83
2023/01/31 00:21:22;;;;;;;21.25;3.42;;;;;;;3.98;85.52;102438.75;5033953;28;20386;-84
2023/01/31 00:23:49;;;;;;;17.70;3.78;;;;;;;3.92;86.22;102422.69;5034133;28;20105;-83
2023/01/31 00:26:25;;;;;;;17.20;3.03;;;;;;;4.06;85.75;102436.63;5016211;28;20149;-83
2023/01/31 00:28:52;;;;;;;22.92;4.00;;;;;;;4.05;85.70;102440.03;5033854;28;20108;-83
2023/01/31 00:31:19;;;;;;;18.75;3.63;;;;;;;4.00;85.74;102437.13;5015823;28;20432;-83
2023/01/31 00:33:46;;;;;;;14.90;3.60;;;;;;;3.96;85.30;102428.19;5015667;28;20501;-82
2023/01/31 00:36:15;;;;;;;19.83;3.38;;;;;;;3.74;85.23;102383.22;5033717;28;20076;-83
2023/01/31 00:38:49;;;;;;;16.00;3.85;;;;;;;4.04;85.09;102431.31;5033409;28;20385;-83
2023/01/31 00:41:14;;;;;;;14.35;3.38;;;;;;;4.05;85.76;102434.81;5032125;28;20033;-83
2023/01/31 00:43:40;;;;;;;18.48;3.50;;;;;;;3.91;84.70;102413.03;5033228;28;20041;-83
2023/01/31 00:46:05;;;;;;;16.30;3.58;;;;;;;3.85;85.41;102404.78;5033818;28;20462;-82
2023/01/31 00:48:31;;;;;;;16.58;4.22;;;;;;;3.74;84.95;102386.72;5033510;28;20033;-83
2023/01/31 00:50:56;;;;;;;17.42;3.33;;;;;;;3.91;85.87;102426.09;5033218;28;20030;-82
2023/01/31 00:53:22;;;;;;;16.08;3.53;;;;;;;3.73;85.31;102390.16;5033544;28;20030;-83
2023/01/31 00:55:51;;;;;;;21.23;4.03;;;;;;;3.71;85.36;102389.13;5015773;28;20065;-82
2023/01/31 00:58:17;;;;;;;11.50;3.20;;;;;;;3.87;86.25;102419.78;5033513;28;20040;-82
2023/01/31 01:00:43;;;;;;;12.68;3.60;;;;;;;3.86;85.70;102417.97;5032915;28;20400;-83
2023/01/31 01:03:09;;;;;;;19.08;4.10;;;;;;;3.68;85.73;102395.88;5032110;28;20034;-82
2023/01/31 01:05:35;;;;;;;15.25;3.85;;;;;;;3.78;86.06;102423.53;5032222;28;20033;-82
2023/01/31 01:08:00;;;;;;;19.10;4.20;;;;;;;3.68;86.46;102395.88;5033361;28;20030;-82
2023/01/31 01:10:25;;;;;;;17.77;4.13;;;;;;;3.70;86.59;102408.25;5033333;28;20052;-82
2023/01/31 01:12:51;;;;;;;21.27;4.28;;;;;;;3.69;87.06;102402.94;5033396;28;20132;-85
2023/01/31 01:15:16;;;;;;;18.83;4.18;;;;;;;3.60;87.28;102389.25;5015817;28;20087;-81
2023/01/31 01:17:42;;;;;;;18.98;4.10;;;;;;;3.49;86.91;102371.19;5032151;28;20079;-82
2023/01/31 01:20:08;;;;;;;16.83;3.92;;;;;;;3.48;87.62;102378.94;5015992;28;20037;-82
2023/01/31 01:22:34;;;;;;;20.95;3.80;;;;;;;3.45;87.90;102370.91;5033046;28;20533;-82
2023/01/31 01:24:59;;;;;;;11.82;3.67;;;;;;;3.48;87.90;102382.47;5033225;28;20043;-81
2023/01/31 01:27:26;;;;;;;19.40;4.20;;;;;;;3.45;88.05;102389.19;5033551;28;20033;-82
2023/01/31 01:29:51;;;;;;;16.63;4.10;;;;;;;3.36;87.73;102383.38;5032999;28;20051;-82
2023/01/31 01:32:17;;;;;;;19.67;4.05;;;;;;;3.18;88.51;102360.50;5032901;28;20466;-82
2023/01/31 01:34:42;;;;;;;18.48;4.20;;;;;;;3.21;89.44;102378.97;5031831;28;20041;-82
2023/01/31 01:37:18;;;;;;;17.92;3.60;;;;;;;3.06;89.31;102364.00;5033097;28;20026;-82
2023/01/31 01:39:48;;;;;;;17.65;4.30;;;;;;;3.16;89.57;102384.69;5033072;28;20041;-82
2023/01/31 01:42:19;;;;;;;16.92;4.20;;;;;;;3.15;90.30;102378.56;5032766;28;20113;-82
2023/01/31 01:44:55;;;;;;;20.77;4.95;;;;;;;3.18;89.46;102381.38;5033098;28;20095;-82
2023/01/31 01:47:29;;;;;;;13.88;4.20;;;;;;;3.17;90.07;102369.13;5015541;28;20025;-81
2023/01/31 01:50:03;;;;;;;20.27;4.80;;;;;;;3.19;90.34;102366.63;5033042;28;20025;-84
2023/01/31 01:52:32;;;;;;;22.70;4.93;;;;;;;3.22;89.59;102365.09;5034286;28;20033;-82
2023/01/31 01:55:33;;;;;;;17.98;4.78;;;;;;;3.24;90.09;102360.88;5036368;28;20398;-82
2023/01/31 01:58:08;;;;;;;18.10;4.85;;;;;;;3.28;90.24;102372.44;5002792;28;20037;-82
2023/01/31 02:00:35;;;;;;;17.08;4.68;;;;;;;3.28;89.69;102361.06;5036667;28;20052;-82
2023/01/31 02:03:04;;;;;;;25.48;5.30;;;;;;;3.16;90.28;102345.50;5035975;28;20117;-82
2023/01/31 02:05:51;;;;;;;17.83;5.68;;;;;;;3.24;90.42;102366.09;5036195;28;20033;-82
2023/01/31 02:08:20;;;;;;;19.83;5.05;;;;;;;3.21;90.06;102373.75;5036520;28;20025;-82
2023/01/31 02:11:00;;;;;;;18.98;5.00;;;;;;;3.20;90.83;102384.09;5036374;28;20030;-81
2023/01/31 02:13:27;;;;;;;18.27;5.00;;;;;;;2.97;90.19;102346.94;5036126;28;20029;-81
2023/01/31 02:15:52;;;;;;;19.98;4.93;;;;;;;3.17;89.96;102383.88;5036334;28;20107;-81
2023/01/31 02:18:20;;;;;;;23.55;4.95;;;;;;;3.13;90.80;102390.63;5036560;28;20458;-81
2023/01/31 02:21:08;;;;;;;26.15;6.05;;;;;;;3.12;91.13;102382.69;5036537;28;20026;-81
2023/01/31 02:23:48;;;;;;;25.00;6.18;;;;;;;3.12;90.87;102383.56;5035584;28;20124;-81
2023/01/31 02:26:47;;;;;;;14.30;4.90;;;;;;;3.12;91.02;102385.28;5036194;28;20029;-81
2023/01/31 02:29:57;;;;;;;17.65;5.50;;;;;;;3.13;91.48;102397.56;5036114;28;20025;-81
2023/01/31 02:33:00;;;;;;;21.65;6.18;;;;;;;3.13;91.72;102395.84;5032778;28;20545;-82
2023/01/31 02:35:51;;;;;;;24.15;5.65;;;;;;;3.06;91.47;102382.28;5035758;28;20041;-81
2023/01/31 02:38:36;;;;;;;21.58;6.00;;;;;;;3.11;92.09;102389.63;5018434;28;20095;-81
2023/01/31 02:41:24;;;;;;;22.15;6.10;;;;;;;3.06;92.44;102383.19;5018311;28;20450;-82
2023/01/31 02:46:58;;;;;;;30.65;5.72;;;;;;;3.06;92.66;102377.06;5035509;28;20049;-82
2023/01/31 02:49:36;;;;;;;20.27;6.30;;;;;;;2.94;93.44;102359.78;5035531;28;20021;-82
2023/01/31 02:52:15;;;;;;;26.95;7.43;;;;;;;3.07;94.24;102387.59;5035852;28;20260;-82
2023/01/31 02:57:30;;;;;;;28.27;6.47;;;;;;;3.03;94.13;102380.38;5037009;28;20048;-81
2023/01/31 02:59:56;;;;;;;20.25;6.30;;;;;;;3.09;94.55;102379.88;5035488;28;20033;-82
2023/01/31 03:02:23;;;;;;;24.65;6.72;;;;;;;3.00;95.19;102359.28;5035353;28;20029;-81
2023/01/31 03:04:48;;;;;;;28.52;7.40;;;;;;;3.09;95.06;102378.19;5018264;28;20450;-82
2023/01/31 03:07:28;;;;;;;28.58;8.45;;;;;;;3.11;95.81;102388.72;5034103;28;20096;-82
2023/01/31 03:10:19;;;;;;;21.45;7.32;;;;;;;3.10;96.21;102374.75;5035585;28;20390;-81
2023/01/31 03:12:50;;;;;;;30.77;7.82;;;;;;;3.10;96.42;102359.09;5035531;28;20112;-82
2023/01/31 03:18:25;;;;;;;26.38;8.35;;;;;;;3.07;96.69;102345.81;5035241;28;20048;-82
2023/01/31 03:21:02;;;;;;;29.42;8.90;;;;;;;3.11;96.31;102341.69;5035212;28;20033;-81
2023/01/31 03:23:30;;;;;;;22.60;7.50;;;;;;;3.22;96.85;102359.88;5035072;28;20124;-82
2023/01/31 03:25:59;;;;;;;32.15;8.07;;;;;;;3.28;96.27;102361.97;5035061;28;20033;-81
2023/01/31 03:28:30;;;;;;;22.13;8.30;;;;;;;3.28;97.27;102368.91;5034908;28;20119;-81
2023/01/31 03:31:07;;;;;;;31.13;8.63;;;;;;;3.28;97.22;102367.19;5034765;28;20041;-81
2023/01/31 03:33:39;;;;;;;29.33;8.02;;;;;;;3.21;96.71;102344.09;5034882;28;20050;-81
2023/01/31 03:36:25;;;;;;;27.38;8.93;;;;;;;3.33;96.64;102351.81;5034899;28;20025;-81
2023/01/31 03:39:09;;;;;;;26.25;8.27;;;;;;;3.33;96.47;102355.34;5033629;28;20033;-81
2023/01/31 03:41:52;;;;;;;21.45;8.50;;;;;;;3.20;96.24;102324.91;5034780;28;20466;-81
2023/01/31 03:44:35;;;;;;;26.15;8.27;;;;;;;3.16;97.12;102314.16;5034690;28;20037;-81
2023/01/31 03:47:08;;;;;;;26.00;8.52;;;;;;;3.29;97.19;102360.25;5034509;28;20036;-82
2023/01/31 03:49:38;;;;;;;18.10;7.88;;;;;;;3.22;97.17;102339.00;5034647;28;20034;-82
2023/01/31 03:52:07;;;;;;;32.13;8.48;;;;;;;3.19;97.88;102324.81;5034577;28;20029;-82
2023/01/31 03:54:43;;;;;;;23.05;9.48;;;;;;;3.19;98.00;102338.78;5034524;28;20034;-81
2023/01/31 03:57:29;;;;;;;27.15;8.57;;;;;;;3.10;97.92;102314.69;5034493;28;20026;-83
2023/01/31 03:59:58;;;;;;;23.58;8.07;;;;;;;3.17;97.94;102326.41;5034690;28;20036;-82
2023/01/31 04:02:36;;;;;;;26.30;8.70;;;;;;;3.25;97.62;102319.97;5046972;28;20469;-82
2023/01/31 04:05:11;;;;;;;28.40;8.88;;;;;;;3.21;98.30;102317.97;5036326;28;20047;-82
2023/01/31 04:07:37;;;;;;;27.67;9.18;;;;;;;3.18;98.30;102318.69;5036220;28;20122;-82
2023/01/31 04:10:18;;;;;;;30.58;9.55;;;;;;;3.15;98.47;102321.09;5054056;28;20080;-82
2023/01/31 04:12:44;;;;;;;27.33;9.40;;;;;;;2.99;98.85;102295.69;5036374;28;20037;-83
2023/01/31 04:15:11;;;;;;;25.92;9.18;;;;;;;3.20;98.71;102321.41;5053045;28;20047;-84
2023/01/31 04:17:37;;;;;;;34.60;10.10;;;;;;;3.18;98.79;102317.78;5054240;28;20037;-82
2023/01/31 04:20:04;;;;;;;31.15;9.80;;;;;;;3.12;99.26;102313.06;5053582;28;20416;-83
2023/01/31 04:22:30;;;;;;;20.80;8.30;;;;;;;3.17;98.88;102319.50;5053919;28;20036;-83
2023/01/31 04:24:56;;;;;;;20.05;8.32;;;;;;;3.17;98.50;102323.81;5035025;28;20044;-83
2023/01/31 04:27:21;;;;;;;27.85;9.60;;;;;;;3.16;99.13;102322.91;5035988;28;20036;-83
2023/01/31 04:29:46;;;;;;;23.30;9.43;;;;;;;3.17;98.64;102326.41;5052578;28;20539;-83
2023/01/31 04:32:12;;;;;;;23.92;9.25;;;;;;;3.13;98.65;102327.94;5053712;28;20036;-84
2023/01/31 04:34:37;;;;;;;23.27;8.57;;;;;;;3.15;98.33;102317.59;5035530;28;20452;-83
2023/01/31 04:37:02;;;;;;;23.42;8.90;;;;;;;3.08;99.03;102307.53;5035700;28;20025;-83
2023/01/31 04:39:28;;;;;;;29.33;10.30;;;;;;;2.94;99.37;102285.78;5053524;28;20067;-83
2023/01/31 04:41:53;;;;;;;22.83;8.15;;;;;;;2.99;99.02;102295.69;5053534;28;20033;-83
2023/01/31 04:44:18;;;;;;;23.83;9.40;;;;;;;3.06;99.18;102324.84;5035552;28;20033;-83
2023/01/31 04:46:45;;;;;;;33.20;9.15;;;;;;;3.06;98.94;102325.75;5019243;28;20391;-83
2023/01/31 04:49:11;;;;;;;28.55;8.60;;;;;;;2.85;98.79;102285.19;5019349;28;20029;-83
2023/01/31 04:51:37;;;;;;;28.50;8.90;;;;;;;3.00;99.11;102312.31;5052262;28;20033;-83
2023/01/31 04:54:03;;;;;;;24.90;9.40;;;;;;;2.97;99.32;102314.69;5052020;28;20559;-82
2023/01/31 04:56:28;;;;;;;27.80;8.93;;;;;;;2.95;99.37;102308.47;5053061;28;20469;-82
2023/01/31 04:58:54;;;;;;;29.75;9.30;;;;;;;2.91;99.56;102303.84;5051997;28;20025;-83
2023/01/31 05:01:19;;;;;;;27.55;9.45;;;;;;;2.86;99.90;102289.59;5035224;28;20055;-83
2023/01/31 05:03:45;;;;;;;29.58;9.00;;;;;;;2.91;99.63;102296.00;5034891;28;20056;-83
2023/01/31 05:06:10;;;;;;;27.50;9.82;;;;;;;2.82;99.36;102280.66;5053060;28;20052;-82
2023/01/31 05:08:36;;;;;;;20.73;8.13;;;;;;;2.63;99.32;102249.84;5035430;28;20090;-83
2023/01/31 05:11:05;;;;;;;23.85;8.48;;;;;;;2.86;99.05;102287.88;5053262;28;20041;-83
2023/01/31 05:13:31;;;;;;;23.70;8.68;;;;;;;2.64;99.38;102246.44;5019231;28;20033;-82
2023/01/31 05:15:57;;;;;;;26.58;8.52;;;;;;;2.89;99.89;102285.47;5053235;28;20033;-83
2023/01/31 05:18:26;;;;;;;30.83;9.63;;;;;;;2.89;100.00;102285.47;5035366;28;20055;-82
2023/01/31 05:20:51;;;;;;;24.27;8.88;;;;;;;2.88;100.00;102270.63;5053388;28;20496;-82
2023/01/31 05:23:18;;;;;;;29.85;9.50;;;;;;;2.83;100.00;102245.94;5053019;28;20045;-82
2023/01/31 05:25:44;;;;;;;21.98;8.02;;;;;;;2.97;100.00;102272.94;5053155;28;20021;-82
2023/01/31 05:28:09;;;;;;;27.65;8.90;;;;;;;3.00;99.87;102267.91;5039221;28;20029;-83
2023/01/31 05:30:36;;;;;;;27.70;9.52;;;;;;;3.00;100.00;102275.75;5038989;28;20040;-82
2023/01/31 05:33:01;;;;;;;26.88;8.98;;;;;;;3.05;100.00;102268.19;5056861;28;20060;-82
2023/01/31 05:35:26;;;;;;;19.48;8.63;;;;;;;3.06;99.59;102267.38;5022605;28;20041;-83
2023/01/31 05:37:55;;;;;;;24.02;8.55;;;;;;;3.14;99.41;102279.22;5022508;28;20048;-83
2023/01/31 05:40:21;;;;;;;24.42;8.40;;;;;;;3.09;99.78;102268.50;5055379;28;20469;-83
2023/01/31 05:43:01;;;;;;;23.58;9.07;;;;;;;3.15;99.33;102265.34;5056863;28;20031;-82
2023/01/31 05:45:27;;;;;;;24.48;8.95;;;;;;;3.15;98.99;102258.41;5056898;28;20033;-83
2023/01/31 05:47:54;;;;;;;23.73;7.95;;;;;;;3.12;99.91;102246.88;5038690;28;20036;-83
2023/01/31 05:50:19;;;;;;;23.20;8.48;;;;;;;3.16;99.30;102260.22;5055454;28;20040;-83
2023/01/31 05:52:50;;;;;;;27.85;9.10;;;;;;;3.15;99.13;102247.97;5056731;28;20040;-82
2023/01/31 05:55:15;;;;;;;21.08;8.15;;;;;;;3.20;99.34;102258.72;5038830;28;20036;-82
2023/01/31 05:57:40;;;;;;;34.40;9.05;;;;;;;3.18;98.89;102250.78;5056697;28;20389;-83
2023/01/31 06:00:06;;;;;;;25.33;8.43;;;;;;;3.10;99.39;102243.28;5038644;28;20392;-82
2023/01/31 06:02:32;;;;;;;26.27;9.13;;;;;;;3.16;99.28;102254.09;5021891;28;20048;-82
2023/01/31 06:04:57;;;;;;;22.08;8.10;;;;;;;3.18;99.12;102249.88;5054614;28;20461;-82
2023/01/31 06:07:23;;;;;;;26.05;8.73;;;;;;;3.14;99.26;102251.41;5055189;28;20033;-82
2023/01/31 06:09:48;;;;;;;18.48;7.93;;;;;;;3.18;98.93;102260.34;5038544;28;20037;-81
2023/01/31 06:12:14;;;;;;;26.63;8.30;;;;;;;3.04;98.69;102235.03;5055022;28;20040;-82
2023/01/31 06:14:39;;;;;;;25.10;8.25;;;;;;;3.24;98.90;102261.59;5056198;28;20071;-81
2023/01/31 06:17:05;;;;;;;28.88;8.52;;;;;;;3.26;98.41;102264.34;5037957;28;20040;-83
2023/01/31 06:19:32;;;;;;;24.15;8.60;;;;;;;3.21;98.37;102244.84;5037730;28;20065;-81
2023/01/31 06:21:58;;;;;;;20.83;7.75;;;;;;;3.23;98.29;102248.47;5021697;28;20029;-82
2023/01/31 06:24:23;;;;;;;23.77;8.15;;;;;;;3.24;97.61;102247.66;5038083;28;20040;-83
2023/01/31 06:26:49;;;;;;;25.98;7.93;;;;;;;3.31;98.20;102256.78;5054637;28;20033;-82
2023/01/31 06:29:14;;;;;;;25.25;7.70;;;;;;;3.29;97.90;102259.28;5056215;28;20033;-82
2023/01/31 06:31:43;;;;;;;26.80;8.00;;;;;;;3.23;98.01;102245.84;5055654;28;20033;-82
2023/01/31 06:34:09;;;;;;;30.45;8.35;;;;;;;3.33;97.74;102250.84;5037454;28;20127;-82
2023/01/31 06:36:34;;;;;;;27.08;8.02;;;;;;;3.34;97.80;102250.06;5054403;28;20037;-83
2023/01/31 06:39:03;;;;;;;21.77;7.38;;;;;;;3.32;97.57;102240.31;5039866;28;20493;-82
2023/01/31 06:41:29;;;;;;;24.55;7.90;;;;;;;3.37;98.01;102241.47;5018030;28;20032;-83
2023/01/31 06:43:55;;;;;;;22.05;7.15;;;;;;;3.40;97.39;102242.59;5034461;28;20029;-83
2023/01/31 06:46:20;;;;;;;32.00;8.43;;;;;;;3.41;97.31;102246.09;5034508;28;20041;-82
2023/01/31 06:48:47;;;;;;;21.52;7.38;;;;;;;3.26;97.77;102220.84;5017958;28;20036;-82
2023/01/31 06:51:13;;;;;;;20.27;7.38;;;;;;;3.35;97.71;102223.13;5035680;28;20059;-83
2023/01/31 06:53:38;;;;;;;21.38;7.45;;;;;;;3.40;97.50;102228.63;5034353;28;20060;-82
2023/01/31 06:56:04;;;;;;;25.55;7.57;;;;;;;3.41;97.71;102238.25;5034230;28;20470;-83
2023/01/31 06:58:33;;;;;;;23.58;7.13;;;;;;;3.42;97.18;102230.50;5034385;28;20034;-83
2023/01/31 07:01:10;;;;;;;20.88;7.03;;;;;;;3.45;97.74;102229.81;5017678;28;20124;-83
2023/01/31 07:03:36;;;;;;;24.70;7.28;;;;;;;3.40;97.07;102226.00;5017717;28;20033;-82
2023/01/31 07:06:03;;;;;;;20.50;7.28;;;;;;;3.45;97.69;102232.41;5035456;28;20033;-83
2023/01/31 07:08:29;;;;;;;38.88;7.22;;;;;;;3.37;97.35;102204.91;5017587;28;20123;-83
2023/01/31 07:10:55;;;;;;;23.40;7.28;;;;;;;3.51;97.37;102219.72;5035185;28;20037;-84
2023/01/31 07:13:20;;;;;;;23.83;7.20;;;;;;;3.52;97.26;102218.94;5016934;28;20053;-82
2023/01/31 07:15:46;;;;;;;23.23;6.85;;;;;;;3.53;97.95;102222.44;5033861;28;20034;-83
2023/01/31 07:18:11;;;;;;;24.13;7.72;;;;;;;3.52;97.69;102229.38;5034985;28;20495;-83
2023/01/31 07:20:39;;;;;;;21.45;6.70;;;;;;;3.58;97.74;102224.50;5035060;28;20030;-83
2023/01/31 07:23:04;;;;;;;21.08;7.82;;;;;;;3.49;97.91;102211.78;5017037;28;20075;-83
2023/01/31 07:25:32;;;;;;;22.35;6.97;;;;;;;3.59;98.05;102221.09;5033505;28;20026;-83
2023/01/31 07:27:59;;;;;;;20.70;6.22;;;;;;;3.61;97.84;102213.34;5033734;28;20033;-82
2023/01/31 07:30:25;;;;;;;19.52;7.03;;;;;;;3.62;97.86;102209.94;5016782;28;20059;-82
2023/01/31 07:32:50;;;;;;;19.05;6.97;;;;;;;3.63;97.54;102214.34;5033038;28;20485;-82
2023/01/31 07:35:16;;;;;;;22.75;6.50;;;;;;;3.58;97.90;102198.38;5034550;28;20029;-84
2023/01/31 07:37:42;;;;;;;17.80;6.07;;;;;;;3.60;97.98;102193.22;5034348;28;20052;-82
2023/01/31 07:40:10;;;;;;;19.80;6.38;;;;;;;3.78;97.44;102217.00;5016593;28;20478;-83
2023/01/31 07:42:35;;;;;;;25.13;6.13;;;;;;;3.71;96.68;102200.03;5034285;28;20040;-84
2023/01/31 07:45:00;;;;;;;27.27;7.45;;;;;;;3.79;97.51;102204.00;5016360;28;20033;-84
2023/01/31 07:47:26;;;;;;;22.27;7.38;;;;;;;3.82;97.68;102198.97;5033204;28;20112;-82
2023/01/31 07:49:51;;;;;;;18.30;6.22;;;;;;;3.84;97.45;102213.00;5031960;28;20045;-83
2023/01/31 07:52:16;;;;;;;18.85;6.68;;;;;;;3.91;96.68;102199.50;5032997;28;20533;-83
2023/01/31 07:54:42;;;;;;;19.60;6.35;;;;;;;3.67;96.56;102141.44;5033215;28;20037;-83
2023/01/31 07:57:07;;;;;;;19.45;6.32;;;;;;;3.92;97.27;102190.84;5032396;28;20033;-83
2023/01/31 07:59:33;;;;;;;21.05;5.88;;;;;;;3.86;97.41;102166.97;5032714;28;20069;-83
2023/01/31 08:04:42;;;;;;;16.50;5.43;;;;;;;4.05;96.84;102188.94;5033706;28;20084;-83
2023/01/31 08:07:09;;;;;;;16.55;5.60;;;;;;;4.04;96.67;102180.22;5016140;28;20037;-84
2023/01/31 08:09:35;;;;;;;18.90;5.82;;;;;;;4.09;95.78;102180.47;5032600;28;20143;-83
2023/01/31 08:12:00;;;;;;;24.00;6.35;;;;;;;4.13;96.52;102183.34;5033559;28;20033;-83
2023/01/31 08:14:27;;;;;;;16.98;6.25;;;;;;;4.14;96.60;102173.78;4999416;28;20374;-82
2023/01/31 08:16:54;;;;;;;16.58;5.28;;;;;;;4.18;96.19;102171.44;5032610;28;20083;-82
2023/01/31 08:19:19;;;;;;;17.38;6.15;;;;;;;4.18;95.88;102165.31;5016015;28;20033;-82
2023/01/31 08:21:45;;;;;;;18.52;5.57;;;;;;;4.11;95.73;102156.22;5033846;28;20029;-83
2023/01/31 08:24:10;;;;;;;21.92;6.13;;;;;;;4.24;95.64;102174.44;5032451;28;20367;-83
2023/01/31 08:26:36;;;;;;;15.27;5.55;;;;;;;4.22;95.94;102164.69;5032745;28;20033;-83
2023/01/31 08:29:02;;;;;;;17.88;5.60;;;;;;;4.17;95.15;102151.34;5015915;28;20033;-83
2023/01/31 08:31:27;;;;;;;17.63;5.80;;;;;;;4.19;95.48;102152.31;5033254;28;20030;-83
2023/01/31 08:33:54;;;;;;;16.52;5.40;;;;;;;4.30;95.46;102163.41;5033298;28;20064;-83
2023/01/31 08:36:23;;;;;;;20.13;6.63;;;;;;;4.35;95.53;102156.72;5033369;28;20049;-83
2023/01/31 08:38:49;;;;;;;24.83;5.78;;;;;;;4.30;95.49;102152.94;5031916;28;20389;-83
2023/01/31 08:41:16;;;;;;;24.98;5.78;;;;;;;4.30;94.89;102149.44;5033213;28;20060;-83
2023/01/31 08:43:42;;;;;;;20.10;5.75;;;;;;;4.33;95.34;102136.53;5033097;28;20112;-84
2023/01/31 08:46:08;;;;;;;17.35;6.13;;;;;;;4.43;94.86;102144.06;5031987;28;20109;-84
2023/01/31 08:48:35;;;;;;;14.95;5.65;;;;;;;4.48;95.37;102151.34;5031993;28;20076;-83
2023/01/31 08:51:02;;;;;;;19.80;5.72;;;;;;;4.44;94.84;102125.81;5015126;28;20536;-83
2023/01/31 08:53:27;;;;;;;21.27;6.07;;;;;;;4.42;95.25;102114.38;5015481;28;20084;-83
2023/01/31 08:55:57;;;;;;;19.27;5.90;;;;;;;4.58;95.00;102144.00;5015425;28;20041;-83
2023/01/31 08:58:23;;;;;;;17.88;5.22;;;;;;;4.61;94.67;102141.56;5031693;28;20478;-83
2023/01/31 09:00:48;;;;;;;21.38;7.22;;;;;;;4.59;94.86;102120.56;5032334;28;20033;-83
2023/01/31 09:03:17;;;;;;;18.50;5.72;;;;;;;4.64;95.70;102132.19;5032710;28;20056;-83
2023/01/31 09:05:44;;;;;;;17.17;4.97;;;;;;;4.73;94.87;102118.69;5032521;28;20477;-83
2023/01/31 09:08:09;;;;;;;19.33;5.00;;;;;;;4.81;95.17;102129.59;5032901;28;20201;-83
2023/01/31 09:10:35;;;;;;;16.08;5.47;;;;;;;4.75;95.37;102117.03;5031554;28;20461;-83
2023/01/31 09:13:01;;;;;;;15.45;5.45;;;;;;;4.74;95.57;102099.53;5032629;28;20500;-83
2023/01/31 09:15:26;;;;;;;20.35;5.57;;;;;;;4.77;95.39;102091.84;5032602;28;20124;-83
2023/01/31 09:17:52;;;;;;;24.65;5.70;;;;;;;4.88;95.30;102126.47;5015176;28;20367;-83
2023/01/31 09:20:17;;;;;;;22.98;6.20;;;;;;;4.77;95.29;102097.09;5032510;28;20061;-83
2023/01/31 09:22:43;;;;;;;20.95;5.80;;;;;;;4.64;94.71;102071.06;5031733;28;20064;-83
2023/01/31 09:25:09;;;;;;;15.15;4.93;;;;;;;4.95;95.21;102121.66;5032551;28;20109;-83
2023/01/31 09:27:37;;;;;;;14.82;4.88;;;;;;;4.83;94.86;102071.22;5015556;28;20037;-83
2023/01/31 09:30:07;;;;;;;15.93;5.40;;;;;;;4.93;95.16;102073.53;5031665;28;20037;-83
2023/01/31 09:32:32;;;;;;;17.00;4.95;;;;;;;5.05;95.81;102065.41;5014718;28;20070;-83
2023/01/31 09:34:58;;;;;;;15.32;5.00;;;;;;;5.33;95.52;102087.81;5032370;28;20580;-83
2023/01/31 09:37:23;;;;;;;20.00;5.18;;;;;;;5.65;94.71;102094.69;5031521;28;20460;-83
2023/01/31 09:39:49;;;;;;;18.50;5.43;;;;;;;5.77;93.33;102093.59;5015012;28;20060;-83
2023/01/31 09:42:41;;;;;;;20.25;5.13;;;;;;;5.85;92.96;102099.22;5032730;28;20486;-83
2023/01/31 09:45:14;;;;;;;13.77;4.65;;;;;;;5.84;92.22;102102.69;5032600;28;20033;-82
2023/01/31 09:47:43;;;;;;;16.50;4.75;;;;;;;5.89;92.83;102108.16;5032814;28;20049;-83
2023/01/31 09:50:26;;;;;;;18.98;5.63;;;;;;;5.90;91.91;102086.34;5032413;28;20082;-82
2023/01/31 09:52:52;;;;;;;14.25;4.95;;;;;;;5.91;91.63;102059.28;5032414;28;20308;-82
2023/01/31 09:55:26;;;;;;;17.98;5.30;;;;;;;6.23;91.95;102097.63;5032664;28;20029;-83
2023/01/31 09:58:37;;;;;;;18.88;5.22;;;;;;;6.42;91.52;102095.03;5032765;28;20410;-83
2023/01/31 10:01:37;;;;;;;20.13;5.38;;;;;;;6.40;90.78;102093.19;5014796;28;20084;-83
2023/01/31 10:04:20;;;;;;;19.45;5.15;;;;;;;6.46;89.80;102093.47;5032461;28;20073;-82
2023/01/31 10:06:45;;;;;;;21.65;5.47;;;;;;;6.42;89.48;102100.31;5032657;28;20069;-83
2023/01/31 10:09:21;;;;;;;18.58;5.20;;;;;;;6.27;90.74;102086.47;5032612;28;20061;-83
2023/01/31 10:11:53;;;;;;;17.35;5.15;;;;;;;6.15;91.07;102055.28;5032489;28;20025;-83
2023/01/31 10:14:36;;;;;;;19.15;5.32;;;;;;;6.27;90.93;102094.34;5033588;28;20110;-82
2023/01/31 10:17:08;;;;;;;;;;;;;;;6.31;91.07;102084.88;5036238;28;20036;-82
2023/01/31 10:20:09;;;;;;;15.70;5.50;;;;;;;6.31;91.83;102082.25;5035839;28;19978;-82
2023/01/31 10:23:03;;;;;;;19.77;6.05;;;;;;;6.35;91.81;102052.72;5010899;28;20042;-82
2023/01/31 10:25:34;;;;;;;15.32;6.45;;;;;;;6.43;91.24;102075.88;5035926;28;20029;-82
2023/01/31 10:28:14;;;;;;;18.95;7.10;;;;;;;6.40;91.18;102083.59;5035951;28;20033;-82
2023/01/31 10:30:39;;;;;;;16.92;6.65;;;;;;;6.37;90.77;102091.31;5018070;28;20104;-81
2023/01/31 10:33:21;;;;;;;16.65;7.43;;;;;;;6.23;92.06;102076.63;5034919;28;20049;-82
2023/01/31 10:35:48;;;;;;;22.25;7.07;;;;;;;6.16;91.99;102077.16;5034751;28;20381;-81
2023/01/31 10:38:24;;;;;;;15.70;7.28;;;;;;;6.15;92.37;102088.50;5035661;28;20044;-82
2023/01/31 10:41:13;;;;;;;18.92;8.23;;;;;;;5.96;92.91;102058.75;5034489;28;20061;-82
2023/01/31 10:44:00;;;;;;;20.58;8.73;;;;;;;6.15;93.13;102098.97;5035562;28;20112;-81
2023/01/31 10:46:26;;;;;;;18.20;8.15;;;;;;;6.20;92.88;102086.97;5034369;28;20068;-82
2023/01/31 10:48:51;;;;;;;20.85;9.30;;;;;;;6.21;93.06;102092.31;5017809;28;20457;-82
2023/01/31 10:51:32;;;;;;;20.08;8.85;;;;;;;6.25;93.33;102086.41;5035560;28;20402;-82
2023/01/31 10:54:16;;;;;;;21.58;10.05;;;;;;;6.29;93.54;102087.41;5035394;28;20525;-82
2023/01/31 10:56:47;;;;;;;23.80;9.98;;;;;;;6.24;93.41;102060.06;5035520;28;20025;-81
2023/01/31 10:59:30;;;;;;;23.40;10.82;;;;;;;6.34;93.62;102075.44;5035497;28;20116;-81
2023/01/31 11:01:55;;;;;;;28.73;10.73;;;;;;;6.25;93.63;102056.59;5034918;28;20083;-82
2023/01/31 11:04:24;;;;;;;25.63;10.50;;;;;;;6.37;94.08;102072.03;5035093;28;20034;-83
2023/01/31 11:06:49;;;;;;;23.90;10.40;;;;;;;6.25;93.39;102044.41;5035468;28;20108;-81
2023/01/31 11:09:15;;;;;;;26.02;11.85;;;;;;;6.47;93.24;102076.91;5035283;28;20112;-82
2023/01/31 11:12:01;;;;;;;24.48;11.57;;;;;;;6.52;93.48;102057.03;5035205;28;20465;-81
2023/01/31 11:14:29;;;;;;;26.67;12.00;;;;;;;6.55;93.15;102061.50;5035116;28;20029;-81
2023/01/31 11:17:00;;;;;;;21.00;10.38;;;;;;;6.59;93.34;102050.31;5017229;28;20025;-82
2023/01/31 11:19:39;;;;;;;23.48;10.55;;;;;;;6.62;93.79;102048.72;5034610;28;20033;-83
2023/01/31 11:22:06;;;;;;;23.73;11.32;;;;;;;6.64;93.65;102033.97;5034890;28;20482;-82
2023/01/31 11:24:33;;;;;;;24.95;10.90;;;;;;;6.66;92.81;102020.88;5034281;28;20040;-82
2023/01/31 11:27:06;;;;;;;26.70;10.80;;;;;;;6.70;92.55;102009.69;5034684;28;20120;-82
2023/01/31 11:29:35;;;;;;;27.52;11.55;;;;;;;6.78;92.76;102018.81;5034688;28;20040;-82
2023/01/31 11:32:05;;;;;;;20.25;10.77;;;;;;;6.75;93.50;102026.53;5034514;28;20025;-82
2023/01/31 11:34:33;;;;;;;24.92;10.77;;;;;;;6.84;93.27;102031.31;5016577;28;20520;-82
2023/01/31 11:37:04;;;;;;;24.15;10.13;;;;;;;6.74;92.58;102009.00;5034589;28;20064;-82
2023/01/31 11:39:37;;;;;;;25.15;11.00;;;;;;;6.84;92.63;102024.31;5034503;28;20079;-82
2023/01/31 11:42:16;;;;;;;20.40;9.70;;;;;;;6.78;92.34;102027.59;5034343;28;20038;-82
2023/01/31 11:45:00;;;;;;;26.83;10.05;;;;;;;6.74;92.70;102015.16;5016604;28;20171;-81
2023/01/31 11:47:47;;;;;;;21.80;9.07;;;;;;;6.88;92.03;102025.38;5034336;28;20032;-82
2023/01/31 11:50:36;;;;;;;21.92;9.20;;;;;;;6.77;92.21;101986.41;5034235;28;20096;-82